Time;durP1;ratioP1;P1;durP2;ratioP2;P2;SDS_P1;SDS_P2;PMS_P1;PMS_P2;Temp;Humidity;BMP_temperature;BMP_pressure;BME280_temperature;BME280_humidity;BME280_pressure;Samples;Min_cycle;Max_cycle;Signal;HPM_P1;HPM_P2
2022/02/05 00:02:55;;;;;;;;;;;21.80;48.90;;;;;;5093767;28;20018;-45
2022/02/05 00:05:33;;;;;;;;;;;21.80;48.90;;;;;;5086350;28;19972;-52
2022/02/05 00:41:20;;;;;;;;;;;21.80;48.60;;;;;;5014059;28;19925;-47
2022/02/05 00:43:59;;;;;;;;;;;21.80;48.60;;;;;;5013065;28;19931;-47
2022/02/05 00:46:34;;;;;;;;;;;21.80;48.60;;;;;;5014049;28;19925;-45
2022/02/05 00:49:01;;;;;;;;;;;21.80;48.60;;;;;;5052851;28;19990;-46
2022/02/05 00:51:33;;;;;;;;;;;21.80;48.60;;;;;;5053116;28;19924;-48
2022/02/05 00:54:09;;;;;;;;;;;21.80;48.60;;;;;;5053346;28;20380;-50
2022/02/05 00:56:47;;;;;;;;;;;21.80;48.50;;;;;;5053564;28;19924;-48
2022/02/05 00:59:16;;;;;;;;;;;21.80;48.50;;;;;;5053009;28;20033;-50
2022/02/05 01:01:43;;;;;;;;;;;21.80;48.50;;;;;;5103686;27;20359;-45
2022/02/05 01:04:10;;;;;;;;;;;21.80;48.50;;;;;;5156020;27;19962;-47
2022/02/05 01:06:37;;;;;;;;;;;21.80;48.50;;;;;;5137719;27;20014;-47
2022/02/05 01:09:07;;;;;;;;;;;21.80;48.40;;;;;;5136259;27;20397;-48
2022/02/05 01:11:34;;;;;;;;;;;21.80;48.40;;;;;;5136529;27;19927;-48
2022/02/05 01:14:04;;;;;;;;;;;21.80;48.50;;;;;;5153661;27;19966;-48
2022/02/05 01:20:16;;;;;;;;;;;21.80;48.40;;;;;;5145377;27;20385;-46
2022/02/05 01:22:10;;;;;;;;;;;21.80;48.40;;;;;;5148332;27;19973;-47
2022/02/05 01:24:39;;;;;;;;;;;21.80;48.40;;;;;;5156960;27;19923;-48
2022/02/05 01:27:15;;;;;;;;;;;21.80;48.40;;;;;;5155812;27;20021;-48
2022/02/05 01:32:27;;;;;;;;;;;21.80;48.30;;;;;;5156884;27;20331;-49
2022/02/05 01:35:08;;;;;;;;;;;21.80;48.30;;;;;;5117785;27;19967;-51
2022/02/05 01:52:01;;;;;;;;;;;21.80;48.30;;;;;;5092303;28;19965;-46
2022/02/05 01:54:37;;;;;;;;;;;21.80;48.30;;;;;;5093501;28;19932;-47
2022/02/05 01:57:18;;;;;;;;;;;21.80;48.20;;;;;;5092403;28;19924;-45
2022/02/05 02:05:35;;;;;;;;;;;21.70;48.10;;;;;;5021465;28;19926;-48
2022/02/05 02:19:15;;;;;;;;;;;21.80;48.10;;;;;;5078643;28;19963;-48
2022/02/05 02:21:52;;;;;;;;;;;21.80;48.10;;;;;;5091731;28;19979;-46
2022/02/05 02:24:30;;;;;;;;;;;21.80;48.10;;;;;;5091940;28;19928;-45
2022/02/05 02:32:30;;;;;;;;;;;21.70;48.00;;;;;;5031854;28;19980;-44
2022/02/05 02:35:05;;;;;;;;;;;21.70;48.00;;;;;;5030867;28;19932;-45
2022/02/05 02:37:39;;;;;;;;;;;21.70;48.00;;;;;;5031636;28;20330;-47
2022/02/05 02:40:30;;;;;;;;;;;21.80;48.00;;;;;;5067457;28;19925;-45
2022/02/05 02:43:05;;;;;;;;;;;21.70;47.90;;;;;;5071435;28;20379;-45
2022/02/05 02:45:33;;;;;;;;;;;21.80;48.00;;;;;;5071476;28;19978;-47
2022/02/05 02:48:00;;;;;;;;;;;21.80;48.00;;;;;;5071483;28;20408;-45
2022/02/05 02:56:27;;;;;;;;;;;21.80;48.00;;;;;;5070630;28;19968;-46
2022/02/05 02:58:57;;;;;;;;;;;21.70;47.90;;;;;;5070542;28;19925;-47
2022/02/05 03:01:25;;;;;;;;;;;21.70;47.90;;;;;;5071404;28;19939;-45
2022/02/05 03:03:52;;;;;;;;;;;21.70;47.90;;;;;;5070498;28;20015;-45
2022/02/05 03:06:19;;;;;;;;;;;21.70;47.90;;;;;;5071148;28;19929;-50
2022/02/05 03:08:48;;;;;;;;;;;21.70;47.90;;;;;;5119547;28;19982;-44
2022/02/05 03:11:23;;;;;;;;;;;21.70;47.80;;;;;;5134297;28;20387;-46
2022/02/05 03:13:50;;;;;;;;;;;21.70;47.90;;;;;;5139466;27;19966;-44
2022/02/05 03:16:26;;;;;;;;;;;21.70;47.80;;;;;;5155273;27;19951;-46
2022/02/05 03:21:25;;;;;;;;;;;21.70;47.80;;;;;;5154637;27;19977;-47
2022/02/05 03:23:52;;;;;;;;;;;21.70;47.80;;;;;;5155227;27;19929;-47
2022/02/05 03:26:19;;;;;;;;;;;21.70;47.90;;;;;;5156742;27;20021;-48
2022/02/05 03:28:46;;;;;;;;;;;21.70;47.80;;;;;;5139914;27;20282;-45
2022/02/05 03:31:12;;;;;;;;;;;21.70;47.80;;;;;;5159202;27;19959;-45
2022/02/05 03:33:40;;;;;;;;;;;21.70;47.80;;;;;;5158806;27;19927;-48
2022/02/05 03:36:07;;;;;;;;;;;21.70;47.80;;;;;;5158083;27;19923;-47
2022/02/05 03:38:34;;;;;;;;;;;21.70;47.80;;;;;;5158976;27;19923;-46
2022/02/05 03:41:01;;;;;;;;;;;21.70;47.80;;;;;;5158708;27;19966;-47
2022/02/05 03:43:28;;;;;;;;;;;21.70;47.70;;;;;;5158629;27;19976;-46
2022/02/05 03:45:55;;;;;;;;;;;21.70;47.80;;;;;;5157704;27;19930;-45
2022/02/05 03:48:22;;;;;;;;;;;21.70;47.70;;;;;;5158572;27;20005;-47
2022/02/05 03:50:49;;;;;;;;;;;21.70;47.70;;;;;;5143680;27;19923;-46
2022/02/05 03:53:17;;;;;;;;;;;21.70;47.70;;;;;;5119273;27;19953;-49
2022/02/05 03:55:46;;;;;;;;;;;21.70;47.70;;;;;;5137735;27;20389;-49
2022/02/05 03:58:13;;;;;;;;;;;21.70;47.70;;;;;;5137839;27;19978;-47
2022/02/05 04:00:40;;;;;;;;;;;21.70;47.70;;;;;;5153859;27;19968;-49
2022/02/05 04:03:07;;;;;;;;;;;21.70;47.70;;;;;;5158603;27;19965;-45
2022/02/05 04:05:34;;;;;;;;;;;21.70;47.70;;;;;;5147376;27;19969;-46
2022/02/05 04:08:06;;;;;;;;;;;21.70;47.70;;;;;;5137737;27;19923;-46
2022/02/05 04:10:42;;;;;;;;;;;21.70;47.70;;;;;;5137498;27;20470;-46
2022/02/05 04:16:08;;;;;;;;;;;21.70;47.70;;;;;;5154606;27;19966;-46
2022/02/05 04:18:35;;;;;;;;;;;21.70;47.70;;;;;;5158005;27;19927;-50
2022/02/05 04:21:03;;;;;;;;;;;21.70;47.70;;;;;;5157187;27;19968;-45
2022/02/05 04:23:31;;;;;;;;;;;21.70;47.70;;;;;;5157899;27;19923;-45
2022/02/05 04:25:58;;;;;;;;;;;21.70;47.70;;;;;;5158145;27;19958;-46
2022/02/05 04:28:25;;;;;;;;;;;21.70;47.70;;;;;;5158096;27;19930;-47
2022/02/05 04:30:52;;;;;;;;;;;21.70;47.70;;;;;;5138880;27;19923;-48
2022/02/05 04:33:19;;;;;;;;;;;21.70;47.70;;;;;;5158004;27;19971;-48
2022/02/05 04:35:46;;;;;;;;;;;21.70;47.70;;;;;;5156922;27;20378;-47
2022/02/05 04:38:14;;;;;;;;;;;21.70;47.70;;;;;;5138427;27;20290;-49
2022/02/05 04:41:30;;;;;;;;;;;21.70;47.70;;;;;;5157840;27;19923;-51
2022/02/05 04:51:40;;;;;;;;;;;21.60;47.60;;;;;;5145209;27;20404;-48
2022/02/05 04:57:59;;;;;;;;;;;21.60;47.60;;;;;;5053460;28;19947;-50
2022/02/05 05:04:59;;;;;;;;;;;21.60;47.60;;;;;;5073043;28;20002;-52
2022/02/05 05:15:22;;;;;;;;;;;21.60;47.60;;;;;;5072409;28;19928;-46
2022/02/05 05:20:38;;;;;;;;;;;21.60;47.60;;;;;;5072235;28;20023;-44
2022/02/05 05:23:05;;;;;;;;;;;21.60;47.60;;;;;;5072501;28;20011;-49
2022/02/05 05:25:33;;;;;;;;;;;21.60;47.60;;;;;;5072781;28;19970;-47
2022/02/05 05:28:00;;;;;;;;;;;21.60;47.60;;;;;;5072676;28;20372;-46
2022/02/05 05:30:27;;;;;;;;;;;21.60;47.60;;;;;;5072066;28;19925;-51
2022/02/05 05:32:54;;;;;;;;;;;21.60;47.60;;;;;;5109776;27;19930;-45
2022/02/05 05:35:21;;;;;;;;;;;21.60;47.60;;;;;;5135555;27;20022;-46
2022/02/05 05:37:51;;;;;;;;;;;21.60;47.60;;;;;;5156560;27;20343;-46
2022/02/05 05:40:20;;;;;;;;;;;21.60;47.60;;;;;;5156359;27;19934;-44
2022/02/05 05:42:55;;;;;;;;;;;21.60;47.60;;;;;;5156736;27;20342;-44
2022/02/05 05:48:10;;;;;;;;;;;21.60;47.60;;;;;;5156465;27;20026;-46
2022/02/05 05:53:11;;;;;;;;;;;21.60;47.60;;;;;;5135430;27;20060;-45
2022/02/05 05:55:45;;;;;;;;;;;21.60;47.50;;;;;;5135394;27;20449;-45
2022/02/05 05:58:13;;;;;;;;;;;21.60;47.50;;;;;;5135622;27;20018;-46
2022/02/05 06:00:41;;;;;;;;;;;21.60;47.60;;;;;;5122637;27;20327;-49
2022/02/05 06:03:08;;;;;;;;;;;21.50;47.50;;;;;;5155954;27;19930;-49
2022/02/05 06:05:35;;;;;;;;;;;21.60;47.50;;;;;;5145462;27;20009;-44
2022/02/05 06:08:07;;;;;;;;;;;21.60;47.50;;;;;;5134970;27;20403;-44
2022/02/05 06:10:34;;;;;;;;;;;21.50;47.40;;;;;;5135380;27;19982;-46
2022/02/05 06:13:01;;;;;;;;;;;21.50;47.50;;;;;;5135342;27;19923;-49
2022/02/05 06:15:28;;;;;;;;;;;21.50;47.50;;;;;;5137128;27;19972;-46
2022/02/05 06:17:55;;;;;;;;;;;21.50;47.50;;;;;;5155667;27;20004;-46
2022/02/05 06:20:22;;;;;;;;;;;21.50;47.50;;;;;;5155555;27;19978;-46
2022/02/05 06:22:49;;;;;;;;;;;21.50;47.50;;;;;;5154901;27;19927;-48
2022/02/05 06:25:15;;;;;;;;;;;21.50;47.50;;;;;;5155546;27;20017;-49
2022/02/05 06:27:42;;;;;;;;;;;21.50;47.40;;;;;;5156339;27;19963;-48
2022/02/05 06:30:10;;;;;;;;;;;21.50;47.40;;;;;;5155471;27;20014;-47
2022/02/05 06:32:36;;;;;;;;;;;21.50;47.40;;;;;;5154420;27;20021;-47
2022/02/05 06:35:04;;;;;;;;;;;21.50;47.40;;;;;;5155759;27;20354;-52
2022/02/05 06:37:31;;;;;;;;;;;21.50;47.40;;;;;;5154901;27;19933;-49
2022/02/05 06:39:57;;;;;;;;;;;21.50;47.50;;;;;;5155290;27;19923;-51
2022/02/05 06:42:24;;;;;;;;;;;21.50;47.40;;;;;;5155530;27;19927;-46
2022/02/05 06:44:51;;;;;;;;;;;21.50;47.40;;;;;;5136868;27;19923;-47
2022/02/05 06:47:18;;;;;;;;;;;21.50;47.40;;;;;;5154600;27;19923;-47
2022/02/05 06:49:45;;;;;;;;;;;21.50;47.40;;;;;;5155203;27;19923;-45
2022/02/05 06:52:12;;;;;;;;;;;21.50;47.40;;;;;;5154282;27;19972;-47
2022/02/05 06:54:39;;;;;;;;;;;21.50;47.40;;;;;;5156026;27;20017;-50
2022/02/05 06:57:06;;;;;;;;;;;21.50;47.40;;;;;;5155128;27;20022;-46
2022/02/05 06:59:33;;;;;;;;;;;21.50;47.40;;;;;;5155086;27;19956;-46
2022/02/05 07:02:00;;;;;;;;;;;21.50;47.30;;;;;;5157247;27;19927;-45
2022/02/05 07:04:27;;;;;;;;;;;21.50;47.30;;;;;;5158559;27;20010;-48
2022/02/05 07:06:57;;;;;;;;;;;21.50;47.30;;;;;;5142559;27;19966;-47
2022/02/05 07:09:26;;;;;;;;;;;21.50;47.30;;;;;;5159664;27;19923;-47
2022/02/05 07:11:59;;;;;;;;;;;21.50;47.30;;;;;;5159291;27;20543;-47
2022/02/05 07:14:35;;;;;;;;;;;21.50;47.30;;;;;;5159553;27;19967;-46
2022/02/05 07:17:26;;;;;;;;;;;21.50;47.30;;;;;;5158465;27;19923;-46
2022/02/05 07:20:12;;;;;;;;;;;21.50;47.30;;;;;;5159280;27;19931;-46
2022/02/05 07:31:00;;;;;;;;;;;21.50;47.20;;;;;;5158446;27;20275;-49
2022/02/05 07:33:27;;;;;;;;;;;21.50;47.20;;;;;;5158918;27;20445;-46
2022/02/05 07:35:58;;;;;;;;;;;21.50;47.20;;;;;;5158911;27;19927;-45
2022/02/05 07:38:25;;;;;;;;;;;21.50;47.20;;;;;;5158279;27;19966;-44
2022/02/05 07:40:52;;;;;;;;;;;21.50;47.20;;;;;;5158671;27;20018;-50
2022/02/05 07:43:25;;;;;;;;;;;21.50;47.20;;;;;;5158716;27;19923;-45
2022/02/05 07:45:52;;;;;;;;;;;21.50;47.20;;;;;;5159881;27;20021;-46
2022/02/05 07:48:19;;;;;;;;;;;21.50;47.20;;;;;;5139544;27;19947;-47
2022/02/05 07:50:45;;;;;;;;;;;21.50;47.10;;;;;;5140276;27;19929;-45
2022/02/05 07:53:12;;;;;;;;;;;21.50;47.10;;;;;;5147608;27;19930;-49
2022/02/05 07:55:39;;;;;;;;;;;21.50;47.10;;;;;;5138045;27;20055;-46
2022/02/05 07:58:06;;;;;;;;;;;21.60;47.20;;;;;;5137537;27;19976;-52
2022/02/05 08:00:33;;;;;;;;;;;21.50;47.10;;;;;;5137662;27;19927;-52
2022/02/05 08:03:00;;;;;;;;;;;21.50;47.10;;;;;;5152024;27;19923;-51
2022/02/05 08:05:27;;;;;;;;;;;21.50;47.10;;;;;;5148865;27;20422;-48
2022/02/05 08:07:54;;;;;;;;;;;21.60;47.10;;;;;;5144151;27;20009;-51
2022/02/05 08:10:28;;;;;;;;;;;21.60;47.10;;;;;;5158739;27;19929;-46
2022/02/05 08:12:57;;;;;;;;;;;21.50;47.00;;;;;;5158397;27;20345;-46
2022/02/05 08:15:31;;;;;;;;;;;21.50;47.00;;;;;;5158095;27;19930;-47
2022/02/05 08:17:58;;;;;;;;;;;21.50;47.00;;;;;;5156639;27;19969;-49
2022/02/05 08:20:25;;;;;;;;;;;21.60;47.00;;;;;;5157847;27;19978;-47
2022/02/05 08:22:52;;;;;;;;;;;21.60;47.00;;;;;;5134632;27;19931;-47
2022/02/05 08:25:19;;;;;;;;;;;21.60;47.00;;;;;;5142344;27;19923;-49
2022/02/05 08:27:46;;;;;;;;;;;21.60;47.00;;;;;;5137180;27;19923;-46
2022/02/05 08:30:14;;;;;;;;;;;21.60;47.00;;;;;;5137036;27;19923;-47
2022/02/05 08:32:44;;;;;;;;;;;21.60;47.00;;;;;;5145170;27;20425;-48
2022/02/05 08:35:11;;;;;;;;;;;21.60;47.00;;;;;;5157433;27;20021;-46
2022/02/05 08:37:39;;;;;;;;;;;21.60;47.00;;;;;;5155960;27;20357;-45
2022/02/05 08:40:07;;;;;;;;;;;21.60;47.00;;;;;;5136420;27;20018;-45
2022/02/05 08:42:34;;;;;;;;;;;21.60;47.00;;;;;;5136479;27;19930;-44
2022/02/05 08:45:02;;;;;;;;;;;21.60;46.90;;;;;;5136539;27;20298;-47
2022/02/05 08:47:30;;;;;;;;;;;21.60;46.90;;;;;;5141852;27;19976;-47
2022/02/05 08:49:57;;;;;;;;;;;21.60;46.90;;;;;;5157538;27;19923;-48
2022/02/05 08:52:24;;;;;;;;;;;21.60;46.80;;;;;;5146874;27;19927;-47
2022/02/05 08:54:51;;;;;;;;;;;21.70;46.90;;;;;;5152723;27;19965;-48
2022/02/05 08:57:18;;;;;;;;;;;21.70;46.80;;;;;;5157316;27;20293;-46
2022/02/05 09:07:20;;;;;;;;;;;21.80;46.80;;;;;;5136286;27;19967;-48
2022/02/05 09:13:06;;;;;;;;;;;21.80;46.80;;;;;;5092882;28;19970;-50
2022/02/05 09:15:30;;;;;;;;;;;21.90;46.90;;;;;;5092071;28;19963;-43
2022/02/05 09:17:56;;;;;;;;;;;21.90;46.90;;;;;;5092029;28;20483;-46
2022/02/05 09:20:25;;;;;;;;;;;21.90;46.90;;;;;;5092829;28;19974;-46
2022/02/05 09:22:54;;;;;;;;;;;21.90;46.80;;;;;;5091985;28;19931;-46
2022/02/05 09:25:22;;;;;;;;;;;22.00;46.90;;;;;;5091692;28;19951;-48
2022/02/05 09:27:50;;;;;;;;;;;22.00;46.90;;;;;;5092475;28;19924;-50
2022/02/05 09:30:28;;;;;;;;;;;22.00;46.90;;;;;;5092223;28;19924;-50
2022/02/05 09:32:55;;;;;;;;;;;22.00;46.90;;;;;;5091936;28;19994;-44
2022/02/05 09:35:23;;;;;;;;;;;22.10;47.00;;;;;;5092596;28;19963;-48
2022/02/05 09:37:50;;;;;;;;;;;22.10;47.00;;;;;;5091705;28;19928;-49
2022/02/05 09:40:17;;;;;;;;;;;22.10;46.90;;;;;;5091498;28;20391;-51
2022/02/05 09:42:45;;;;;;;;;;;22.10;46.90;;;;;;5092459;28;19924;-43
2022/02/05 09:45:12;;;;;;;;;;;22.20;46.90;;;;;;5092009;28;20018;-45
2022/02/05 09:47:39;;;;;;;;;;;22.20;46.90;;;;;;5090775;28;19974;-44
2022/02/05 09:50:07;;;;;;;;;;;22.20;46.80;;;;;;5124575;27;20006;-44
2022/02/05 09:52:34;;;;;;;;;;;22.20;46.80;;;;;;5116792;27;19970;-44
2022/02/05 09:55:01;;;;;;;;;;;22.20;46.70;;;;;;5148512;27;19929;-45
2022/02/05 09:57:28;;;;;;;;;;;22.30;46.70;;;;;;5155506;27;19923;-44
2022/02/05 10:00:00;;;;;;;;;;;22.30;46.70;;;;;;5155713;27;19923;-44
2022/02/05 10:02:34;;;;;;;;;;;22.30;46.60;;;;;;5156149;27;19952;-44
2022/02/05 10:05:09;;;;;;;;;;;22.30;46.50;;;;;;5140637;27;19924;-44
2022/02/05 10:07:56;;;;;;;;;;;22.30;46.50;;;;;;5155534;27;19923;-45
2022/02/05 10:10:24;;;;;;;;;;;22.30;46.40;;;;;;5154611;27;19927;-45
2022/02/05 10:13:09;;;;;;;;;;;22.30;46.40;;;;;;5155891;27;19922;-45
2022/02/05 10:15:37;;;;;;;;;;;22.30;46.40;;;;;;5155091;27;20401;-45
2022/02/05 10:18:05;;;;;;;;;;;22.30;46.30;;;;;;5153917;27;20430;-44
2022/02/05 10:20:32;;;;;;;;;;;22.40;46.40;;;;;;5155440;27;19927;-45
2022/02/05 10:23:09;;;;;;;;;;;22.40;46.30;;;;;;5154681;27;19923;-45
2022/02/05 10:25:36;;;;;;;;;;;22.40;46.30;;;;;;5154840;27;19923;-44
2022/02/05 10:28:12;;;;;;;;;;;22.40;46.30;;;;;;5154928;27;19969;-44
2022/02/05 10:30:42;;;;;;;;;;;22.40;46.30;;;;;;5155289;27;19985;-46
2022/02/05 10:33:16;;;;;;;;;;;22.40;46.20;;;;;;5154088;27;20034;-47
2022/02/05 10:35:51;;;;;;;;;;;22.40;46.20;;;;;;5154626;27;20339;-48
2022/02/05 10:38:37;;;;;;;;;;;22.40;46.30;;;;;;5155461;27;20025;-46
2022/02/05 10:44:14;;;;;;;;;;;22.40;46.30;;;;;;5051413;28;19925;-44
2022/02/05 10:46:43;;;;;;;;;;;22.40;46.20;;;;;;5051667;28;19925;-45
2022/02/05 10:49:33;;;;;;;;;;;22.40;46.20;;;;;;5060191;28;19925;-45
2022/02/05 10:52:01;;;;;;;;;;;22.40;46.20;;;;;;5071202;28;19925;-50
2022/02/05 10:54:47;;;;;;;;;;;22.40;46.10;;;;;;5074262;28;19928;-45
2022/02/05 10:58:13;;;;;;;;;;;22.40;46.10;;;;;;5091609;28;19954;-48
2022/02/05 11:07:59;;;;;;;;;;;22.40;45.90;;;;;;5051406;28;19964;-44
2022/02/05 11:14:03;;;;;;;;;;;22.40;45.90;;;;;;5091393;28;19930;-46
2022/02/05 11:18:56;;;;;;;;;;;22.40;45.90;;;;;;5136994;27;19927;-47
2022/02/05 11:21:44;;;;;;;;;;;22.40;45.90;;;;;;5154656;27;19933;-47
2022/02/05 11:24:11;;;;;;;;;;;22.40;45.90;;;;;;5155278;27;20010;-45
2022/02/05 11:26:38;;;;;;;;;;;22.40;45.90;;;;;;5135042;27;19924;-47
2022/02/05 11:29:05;;;;;;;;;;;22.40;45.90;;;;;;5134542;28;19976;-45
2022/02/05 11:31:37;;;;;;;;;;;22.40;45.90;;;;;;5134140;28;19976;-49
2022/02/05 11:34:14;;;;;;;;;;;22.40;45.90;;;;;;5138387;27;19973;-50
2022/02/05 11:36:45;;;;;;;;;;;22.40;45.80;;;;;;5155199;27;19981;-47
2022/02/05 11:39:16;;;;;;;;;;;22.40;45.80;;;;;;5155094;27;20013;-45
2022/02/05 11:41:45;;;;;;;;;;;22.40;45.80;;;;;;5154064;27;20369;-50
2022/02/05 11:44:21;;;;;;;;;;;22.40;45.80;;;;;;5154797;27;19923;-47
2022/02/05 11:47:04;;;;;;;;;;;22.40;45.70;;;;;;5156061;27;19923;-45
2022/02/05 11:49:49;;;;;;;;;;;22.40;45.70;;;;;;5158213;27;19930;-49
2022/02/05 11:52:35;;;;;;;;;;;22.40;45.70;;;;;;5158696;27;20006;-44
2022/02/05 11:55:11;;;;;;;;;;;22.40;45.70;;;;;;5157736;27;20439;-45
2022/02/05 11:57:42;;;;;;;;;;;22.40;45.70;;;;;;5158772;27;19922;-45
2022/02/05 12:00:10;;;;;;;;;;;22.40;45.70;;;;;;5158354;27;19961;-45
2022/02/05 12:02:43;;;;;;;;;;;22.40;45.70;;;;;;5158368;27;19923;-45
2022/02/05 12:05:21;;;;;;;;;;;22.40;45.70;;;;;;5150383;27;20446;-45
2022/02/05 12:08:03;;;;;;;;;;;22.40;45.70;;;;;;5137895;27;19924;-45
2022/02/05 12:10:36;;;;;;;;;;;22.40;45.70;;;;;;5141561;27;19945;-47
2022/02/05 12:13:16;;;;;;;;;;;22.40;45.60;;;;;;5158474;27;19927;-45
2022/02/05 12:15:43;;;;;;;;;;;22.40;45.60;;;;;;5158136;27;19923;-46
2022/02/05 12:23:53;;;;;;;;;;;22.40;45.60;;;;;;5158188;27;20271;-46
2022/02/05 12:26:17;;;;;;;;;;;22.50;45.60;;;;;;5147761;27;19927;-47
2022/02/05 12:28:48;;;;;;;;;;;22.50;45.60;;;;;;5137467;27;19923;-47
2022/02/05 12:31:18;;;;;;;;;;;22.50;45.60;;;;;;5118933;27;19966;-46
2022/02/05 12:33:52;;;;;;;;;;;22.50;45.50;;;;;;5137353;27;19927;-48
2022/02/05 12:36:32;;;;;;;;;;;22.50;45.50;;;;;;5154924;27;20417;-46
2022/02/05 12:39:00;;;;;;;;;;;22.50;45.50;;;;;;5157662;27;19977;-48
2022/02/05 12:41:30;;;;;;;;;;;22.50;45.50;;;;;;5146488;27;19930;-47
2022/02/05 12:43:58;;;;;;;;;;;22.50;45.50;;;;;;5136852;27;19923;-48
2022/02/05 12:46:47;;;;;;;;;;;22.50;45.50;;;;;;5137077;27;19930;-46
2022/02/05 12:49:20;;;;;;;;;;;22.50;45.40;;;;;;5137033;27;19924;-45
2022/02/05 12:51:49;;;;;;;;;;;22.50;45.40;;;;;;5136710;27;19967;-47
2022/02/05 12:54:19;;;;;;;;;;;22.50;45.40;;;;;;5137522;27;20328;-44
2022/02/05 12:56:46;;;;;;;;;;;22.50;45.30;;;;;;5147650;27;20047;-44
2022/02/05 12:59:24;;;;;;;;;;;22.50;45.30;;;;;;5156680;27;20509;-49
2022/02/05 13:01:56;;;;;;;;;;;22.60;45.40;;;;;;5157213;27;19981;-46
2022/02/05 13:04:24;;;;;;;;;;;22.60;45.30;;;;;;5156890;27;19974;-47
2022/02/05 13:07:05;;;;;;;;;;;22.60;45.30;;;;;;5156560;27;19923;-45
2022/02/05 13:09:36;;;;;;;;;;;22.60;45.30;;;;;;5157410;27;20312;-49
2022/02/05 13:12:05;;;;;;;;;;;22.60;45.30;;;;;;5143637;27;19927;-47
2022/02/05 13:14:34;;;;;;;;;;;22.60;45.30;;;;;;5136262;27;19976;-50
2022/02/05 13:17:01;;;;;;;;;;;22.60;45.30;;;;;;5136522;27;20402;-47
2022/02/05 13:19:38;;;;;;;;;;;22.60;45.30;;;;;;5136090;27;19923;-48
2022/02/05 13:28:09;;;;;;;;;;;22.60;45.20;;;;;;5138427;27;19929;-47
2022/02/05 13:35:55;;;;;;;;;;;22.60;45.30;;;;;;5155467;27;19929;-46
2022/02/05 13:38:25;;;;;;;;;;;22.60;45.30;;;;;;5157057;27;19927;-46
2022/02/05 13:40:58;;;;;;;;;;;22.60;45.30;;;;;;5156371;27;19974;-46
2022/02/05 13:43:40;;;;;;;;;;;22.60;45.30;;;;;;5156531;27;19984;-47
2022/02/05 13:46:14;;;;;;;;;;;22.60;45.30;;;;;;5156701;27;19946;-47
2022/02/05 13:48:41;;;;;;;;;;;22.60;45.30;;;;;;5156382;27;20381;-46
2022/02/05 13:51:09;;;;;;;;;;;22.60;45.20;;;;;;5155010;27;20454;-49
2022/02/05 13:53:53;;;;;;;;;;;22.60;45.20;;;;;;5156347;27;19923;-45
2022/02/05 13:56:20;;;;;;;;;;;22.60;45.20;;;;;;5156135;27;20347;-47
2022/02/05 13:58:47;;;;;;;;;;;22.60;45.20;;;;;;5138109;27;19966;-47
2022/02/05 14:01:28;;;;;;;;;;;22.60;45.20;;;;;;5155918;27;19934;-46
2022/02/05 14:03:56;;;;;;;;;;;22.60;45.20;;;;;;5156024;27;19952;-48
2022/02/05 14:06:23;;;;;;;;;;;22.60;45.80;;;;;;5130359;27;20018;-51
2022/02/05 14:08:54;;;;;;;;;;;22.70;45.30;;;;;;5157074;27;19930;-49
2022/02/05 14:11:24;;;;;;;;;;;22.60;45.30;;;;;;5155512;27;20357;-52
2022/02/05 14:13:56;;;;;;;;;;;22.60;45.20;;;;;;5155819;27;19966;-47
2022/02/05 14:16:30;;;;;;;;;;;22.60;45.20;;;;;;5156054;27;19959;-48
2022/02/05 14:19:00;;;;;;;;;;;22.60;45.30;;;;;;5155508;27;19961;-47
2022/02/05 14:21:35;;;;;;;;;;;22.60;45.20;;;;;;5154587;27;20362;-48
2022/02/05 14:24:02;;;;;;;;;;;22.60;45.30;;;;;;5155893;27;19923;-50
2022/02/05 14:26:40;;;;;;;;;;;22.60;45.30;;;;;;5155328;27;20009;-50
2022/02/05 14:29:08;;;;;;;;;;;22.60;45.30;;;;;;5155938;27;19972;-49
2022/02/05 14:32:20;;;;;;;;;;;22.60;45.30;;;;;;5155499;27;20297;-48
2022/02/05 14:35:02;;;;;;;;;;;22.60;45.30;;;;;;5152722;27;19923;-52
2022/02/05 14:42:48;;;;;;;;;;;22.60;45.30;;;;;;5154579;27;20005;-46
2022/02/05 14:45:15;;;;;;;;;;;22.60;45.30;;;;;;5156453;27;19970;-45
2022/02/05 14:47:42;;;;;;;;;;;22.60;45.40;;;;;;5155297;27;19923;-44
2022/02/05 14:50:10;;;;;;;;;;;22.60;45.30;;;;;;5155287;27;20442;-45
2022/02/05 14:52:37;;;;;;;;;;;22.60;45.40;;;;;;5136857;27;19923;-45
2022/02/05 14:55:04;;;;;;;;;;;22.60;45.40;;;;;;5135056;27;19927;-46
2022/02/05 14:57:31;;;;;;;;;;;22.60;45.40;;;;;;5121777;27;19959;-47
2022/02/05 14:59:58;;;;;;;;;;;22.60;45.40;;;;;;5155217;27;20435;-46
2022/02/05 15:02:27;;;;;;;;;;;22.60;45.40;;;;;;5155343;27;19923;-48
2022/02/05 15:04:54;;;;;;;;;;;22.60;45.40;;;;;;5150908;27;19977;-44
2022/02/05 15:07:21;;;;;;;;;;;22.60;45.50;;;;;;5147604;27;19923;-47
2022/02/05 15:09:48;;;;;;;;;;;22.60;45.50;;;;;;5136863;27;20339;-50
2022/02/05 15:12:15;;;;;;;;;;;22.60;45.50;;;;;;5154642;27;20343;-46
2022/02/05 15:14:42;;;;;;;;;;;22.60;45.50;;;;;;5156086;27;19923;-47
2022/02/05 15:17:08;;;;;;;;;;;22.60;45.50;;;;;;5155275;27;20006;-44
2022/02/05 15:19:35;;;;;;;;;;;22.60;45.50;;;;;;5154972;27;19923;-46
2022/02/05 15:22:02;;;;;;;;;;;22.60;45.50;;;;;;5155052;27;20389;-46
2022/02/05 15:24:29;;;;;;;;;;;22.60;45.60;;;;;;5159484;27;19968;-49
2022/02/05 15:26:56;;;;;;;;;;;22.60;45.60;;;;;;5159459;27;19962;-48
2022/02/05 15:29:23;;;;;;;;;;;22.60;45.60;;;;;;5158425;27;20060;-48
2022/02/05 15:31:50;;;;;;;;;;;22.60;45.60;;;;;;5158967;27;19966;-47
2022/02/05 15:34:17;;;;;;;;;;;22.60;45.60;;;;;;5158920;27;19959;-46
2022/02/05 15:36:51;;;;;;;;;;;22.60;45.60;;;;;;5157933;27;19972;-46
2022/02/05 15:39:30;;;;;;;;;;;22.60;45.60;;;;;;5142479;27;19976;-51
2022/02/05 15:44:46;;;;;;;;;;;22.60;45.60;;;;;;5158536;27;19926;-47
2022/02/05 15:47:14;;;;;;;;;;;22.60;45.60;;;;;;5158955;27;19963;-50
2022/02/05 15:49:41;;;;;;;;;;;22.60;45.70;;;;;;5158571;27;19923;-46
2022/02/05 15:52:07;;;;;;;;;;;22.60;45.70;;;;;;5157466;27;19981;-45
2022/02/05 15:54:35;;;;;;;;;;;22.60;45.80;;;;;;5158486;27;19978;-47
2022/02/05 15:57:17;;;;;;;;;;;22.60;45.80;;;;;;5158850;27;19981;-52
2022/02/05 15:59:55;;;;;;;;;;;22.60;45.80;;;;;;5158052;27;19949;-47
2022/02/05 16:02:22;;;;;;;;;;;22.60;45.80;;;;;;5158357;27;19923;-47
2022/02/05 16:04:49;;;;;;;;;;;22.60;45.80;;;;;;5154743;27;20010;-51
2022/02/05 16:07:16;;;;;;;;;;;22.50;45.80;;;;;;5137948;27;20276;-49
2022/02/05 16:09:43;;;;;;;;;;;22.50;46.10;;;;;;5137774;27;19923;-48
2022/02/05 16:12:11;;;;;;;;;;;22.50;46.00;;;;;;5137507;27;19962;-46
2022/02/05 16:14:38;;;;;;;;;;;22.50;46.00;;;;;;5153720;27;19931;-47
2022/02/05 16:17:05;;;;;;;;;;;22.50;46.00;;;;;;5158130;27;19930;-49
2022/02/05 16:19:32;;;;;;;;;;;22.50;46.00;;;;;;5157919;27;19933;-47
2022/02/05 16:21:59;;;;;;;;;;;22.50;46.00;;;;;;5156503;27;19927;-44
2022/02/05 16:24:26;;;;;;;;;;;22.50;46.10;;;;;;5158277;27;19927;-47
2022/02/05 16:26:53;;;;;;;;;;;22.50;46.10;;;;;;5157917;27;19923;-48
2022/02/05 16:29:26;;;;;;;;;;;22.50;46.10;;;;;;5157443;27;19923;-45
2022/02/05 16:31:57;;;;;;;;;;;22.50;46.20;;;;;;5157896;27;20021;-46
2022/02/05 16:34:26;;;;;;;;;;;22.50;46.20;;;;;;5156682;27;19962;-46
2022/02/05 16:36:53;;;;;;;;;;;22.50;46.30;;;;;;5156669;27;20445;-48
2022/02/05 16:39:25;;;;;;;;;;;22.50;46.30;;;;;;5158528;27;19923;-45
2022/02/05 16:41:55;;;;;;;;;;;22.50;46.30;;;;;;5157928;27;19932;-45
2022/02/05 16:44:23;;;;;;;;;;;22.50;46.30;;;;;;5156738;27;19923;-44
2022/02/05 16:46:52;;;;;;;;;;;22.40;46.30;;;;;;5157802;27;20034;-45
2022/02/05 16:49:20;;;;;;;;;;;22.40;46.30;;;;;;5157501;27;19999;-45
2022/02/05 16:51:51;;;;;;;;;;;22.40;46.30;;;;;;5157172;27;20378;-47
2022/02/05 16:54:18;;;;;;;;;;;22.40;46.30;;;;;;5156712;27;19924;-49
2022/02/05 16:56:46;;;;;;;;;;;22.50;46.40;;;;;;5157426;27;20014;-47
2022/02/05 16:59:12;;;;;;;;;;;22.40;46.30;;;;;;5157469;27;20362;-46
2022/02/05 17:01:41;;;;;;;;;;;22.40;46.40;;;;;;5157494;27;19962;-48
2022/02/05 17:04:09;;;;;;;;;;;22.40;46.40;;;;;;5157558;27;19923;-46
2022/02/05 17:06:38;;;;;;;;;;;22.40;46.40;;;;;;5137973;27;19923;-48
2022/02/05 17:09:06;;;;;;;;;;;22.40;46.40;;;;;;5153166;27;19927;-44
2022/02/05 17:11:35;;;;;;;;;;;22.40;46.50;;;;;;5138703;27;19971;-46
2022/02/05 17:14:02;;;;;;;;;;;22.40;46.50;;;;;;5150649;27;20010;-48
2022/02/05 17:16:32;;;;;;;;;;;22.40;46.50;;;;;;5136565;27;19928;-44
2022/02/05 17:18:59;;;;;;;;;;;22.40;46.50;;;;;;5136037;27;19978;-48
2022/02/05 17:21:26;;;;;;;;;;;22.40;46.50;;;;;;5117595;27;19923;-45
2022/02/05 17:23:54;;;;;;;;;;;22.40;46.60;;;;;;5149879;27;19923;-45
2022/02/05 17:26:26;;;;;;;;;;;22.40;46.60;;;;;;5156702;27;19966;-44
2022/02/05 17:28:53;;;;;;;;;;;22.40;46.60;;;;;;5156556;27;19981;-48
2022/02/05 17:31:20;;;;;;;;;;;22.40;46.60;;;;;;5157828;27;20341;-46
2022/02/05 17:33:49;;;;;;;;;;;22.40;46.60;;;;;;5156952;27;19969;-47
2022/02/05 17:36:19;;;;;;;;;;;22.40;46.60;;;;;;5156564;27;19931;-44